Time;durP1;ratioP1;P1;durP2;ratioP2;P2;SDS_P1;SDS_P2;PMS_P1;PMS_P2;Temp;Humidity;BMP_temperature;BMP_pressure;BME280_temperature;BME280_humidity;BME280_pressure;Samples;Min_cycle;Max_cycle;Signal;HPM_P1;HPM_P2
2022/03/06 00:00:37;;;;;;;97.57;47.05;;;;;;;2.58;100.00;97334.34;4991305;28;20029;-85
2022/03/06 00:03:04;;;;;;;104.90;46.35;;;;;;;2.56;100.00;97325.59;4997216;28;20486;-86
2022/03/06 00:05:30;;;;;;;107.20;49.22;;;;;;;2.59;100.00;97333.41;5001888;28;20480;-86
2022/03/06 00:07:56;;;;;;;109.47;50.25;;;;;;;2.61;100.00;97336.88;5007354;28;20030;-86
2022/03/06 00:10:22;;;;;;;131.77;56.40;;;;;;;2.64;100.00;97338.56;5034179;28;20033;-84
2022/03/06 00:12:48;;;;;;;134.32;59.22;;;;;;;2.62;100.00;97325.41;5014543;28;20030;-85
2022/03/06 00:15:14;;;;;;;131.50;57.65;;;;;;;2.79;100.00;97345.09;4992999;28;20600;-85
2022/03/06 00:17:39;;;;;;;108.07;51.95;;;;;;;2.75;100.00;97328.47;4996876;28;20116;-85
2022/03/06 00:20:08;;;;;;;102.50;48.83;;;;;;;2.73;100.00;97339.09;5008271;28;20520;-85
2022/03/06 00:22:35;;;;;;;103.13;47.65;;;;;;;2.61;100.00;97339.53;4987590;28;20568;-84
2022/03/06 00:25:02;;;;;;;102.10;46.65;;;;;;;2.60;100.00;97335.16;5000415;28;20083;-85
2022/03/06 00:27:28;;;;;;;107.40;47.38;;;;;;;2.62;100.00;97341.22;5001018;28;20473;-85
2022/03/06 00:29:53;;;;;;;102.13;47.67;;;;;;;2.60;100.00;97332.53;5015336;28;20087;-86
2022/03/06 00:32:19;;;;;;;98.90;46.50;;;;;;;2.74;100.00;97340.81;4998029;28;20484;-85
2022/03/06 00:34:46;;;;;;;101.57;44.45;;;;;;;2.80;100.00;97339.72;4998302;28;20508;-86
2022/03/06 00:37:11;;;;;;;95.70;42.88;;;;;;;2.57;100.00;97324.69;5010929;28;20095;-84
2022/03/06 00:39:38;;;;;;;99.22;42.35;;;;;;;2.69;100.00;97336.63;5001179;28;20033;-85
2022/03/06 00:42:04;;;;;;;97.30;41.65;;;;;;;2.68;100.00;97337.50;5014992;28;20029;-85
2022/03/06 00:44:29;;;;;;;93.85;42.20;;;;;;;2.64;100.00;97325.34;5002947;28;20405;-84
2022/03/06 00:46:55;;;;;;;96.03;41.28;;;;;;;2.67;100.00;97322.63;4998259;28;20021;-85
2022/03/06 00:49:20;;;;;;;92.18;41.08;;;;;;;2.66;100.00;97326.16;4986718;28;20068;-85
2022/03/06 00:51:46;;;;;;;94.90;41.90;;;;;;;2.68;100.00;97319.91;4983937;28;20121;-85
2022/03/06 00:54:12;;;;;;;97.72;41.75;;;;;;;2.73;100.00;97318.00;4980935;28;20048;-84
2022/03/06 00:56:37;;;;;;;89.28;39.90;;;;;;;2.61;100.00;97302.56;4989056;28;20112;-85
2022/03/06 00:59:03;;;;;;;86.35;39.35;;;;;;;2.59;100.00;97322.00;4977241;28;20042;-84
2022/03/06 01:01:29;;;;;;;87.03;38.67;;;;;;;2.62;100.00;97306.91;4992128;28;20067;-85
2022/03/06 01:03:54;;;;;;;90.13;39.13;;;;;;;2.68;100.00;97322.53;4982823;28;20101;-85
2022/03/06 01:06:20;;;;;;;83.93;36.55;;;;;;;2.74;100.00;97321.47;4997191;28;20018;-85
2022/03/06 01:08:46;;;;;;;75.53;33.38;;;;;;;2.65;100.00;97312.09;5007131;28;20388;-84
2022/03/06 01:11:11;;;;;;;76.30;34.13;;;;;;;2.74;100.00;97318.81;4986720;28;20029;-86
2022/03/06 01:13:37;;;;;;;77.80;35.47;;;;;;;2.64;100.00;97301.59;4986000;28;20030;-85
2022/03/06 01:16:03;;;;;;;80.25;35.78;;;;;;;2.63;100.00;97321.84;4986014;28;20097;-86
2022/03/06 01:18:28;;;;;;;83.05;34.42;;;;;;;2.64;100.00;97315.66;4982740;28;20033;-86
2022/03/06 01:20:54;;;;;;;79.03;35.17;;;;;;;2.65;100.00;97309.44;4989271;28;20514;-86
2022/03/06 01:23:20;;;;;;;75.57;33.22;;;;;;;2.58;100.00;97307.97;5013246;28;20068;-84
2022/03/06 01:25:45;;;;;;;89.75;37.53;;;;;;;2.56;100.00;97303.63;4990191;28;20026;-84
2022/03/06 01:28:11;;;;;;;76.60;34.47;;;;;;;2.43;100.00;97308.44;4996285;28;20181;-85
2022/03/06 01:30:36;;;;;;;73.80;33.72;;;;;;;2.46;100.00;97302.22;4989804;28;20026;-85
2022/03/06 01:33:21;;;;;;;80.90;35.75;;;;;;;2.42;100.00;97298.84;4988246;28;20105;-85
2022/03/06 01:35:46;;;;;;;68.97;33.17;;;;;;;2.39;100.00;97290.16;4989823;28;20074;-85
2022/03/06 01:38:12;;;;;;;77.07;33.55;;;;;;;2.41;100.00;97291.81;4978584;28;20469;-85
2022/03/06 01:40:37;;;;;;;75.35;34.35;;;;;;;2.44;100.00;97306.69;4995647;28;20084;-85
2022/03/06 01:43:03;;;;;;;74.22;34.53;;;;;;;2.40;100.00;97291.88;4988648;28;20375;-84
2022/03/06 01:45:29;;;;;;;78.10;34.42;;;;;;;2.36;100.00;97296.41;5002815;28;20025;-85
2022/03/06 01:47:55;;;;;;;70.70;33.10;;;;;;;2.30;100.00;97307.16;4990154;28;20041;-86
2022/03/06 01:50:30;;;;;;;72.47;32.72;;;;;;;2.33;100.00;97296.50;4994350;28;20022;-85
2022/03/06 01:52:57;;;;;;;75.55;34.45;;;;;;;2.35;100.00;97305.22;4987344;28;20030;-85
2022/03/06 01:55:24;;;;;;;76.50;34.72;;;;;;;2.41;100.00;97307.66;4986872;28;20038;-85
2022/03/06 01:57:51;;;;;;;80.75;35.60;;;;;;;2.22;100.00;97290.69;4998421;28;20080;-86
2022/03/06 02:00:45;;;;;;;80.93;37.28;;;;;;;2.31;100.00;97295.66;4982971;28;20058;-85
2022/03/06 02:03:11;;;;;;;88.18;39.92;;;;;;;2.25;100.00;97293.25;4981926;28;20528;-85
2022/03/06 02:05:38;;;;;;;89.18;39.85;;;;;;;2.28;100.00;97300.22;4979605;28;20943;-85
2022/03/06 02:08:05;;;;;;;109.05;43.70;;;;;;;2.25;100.00;97303.78;5006337;28;20402;-85
2022/03/06 02:10:31;;;;;;;86.90;39.40;;;;;;;2.22;100.00;97293.34;4992767;28;20092;-85
2022/03/06 02:12:58;;;;;;;91.55;41.00;;;;;;;2.22;100.00;97303.91;4977008;28;20018;-85
2022/03/06 02:15:24;;;;;;;89.05;38.97;;;;;;;2.25;100.00;97298.50;4995718;28;20038;-85
2022/03/06 02:17:50;;;;;;;78.55;36.25;;;;;;;2.23;100.00;97284.53;4976569;28;20540;-85
2022/03/06 02:20:24;;;;;;;78.30;36.33;;;;;;;2.32;100.00;97288.63;4976627;28;20026;-85
2022/03/06 02:22:57;;;;;;;82.88;37.08;;;;;;;2.32;100.00;97299.19;4981085;28;20064;-85
2022/03/06 02:25:30;;;;;;;84.18;36.78;;;;;;;2.30;100.00;97290.47;4991979;28;20034;-86
2022/03/06 02:27:58;;;;;;;85.97;37.95;;;;;;;2.29;100.00;97294.00;4989004;28;20449;-85
2022/03/06 02:30:31;;;;;;;80.57;36.97;;;;;;;2.32;100.00;97299.19;4995912;28;20405;-85
2022/03/06 02:32:58;;;;;;;82.07;36.38;;;;;;;2.27;100.00;97296.72;4992430;28;20467;-85
2022/03/06 02:35:24;;;;;;;89.97;40.00;;;;;;;2.27;100.00;97290.56;4984307;28;20561;-85
2022/03/06 02:37:50;;;;;;;101.97;43.25;;;;;;;2.25;100.00;97281.81;5012464;28;20514;-86
2022/03/06 02:40:17;;;;;;;88.32;39.50;;;;;;;2.18;100.00;97281.19;4988071;28;20029;-86
2022/03/06 02:42:45;;;;;;;109.55;44.88;;;;;;;2.18;100.00;97286.47;5028547;28;20056;-86
2022/03/06 02:45:14;;;;;;;102.65;42.60;;;;;;;2.26;100.00;97291.47;4987551;28;20121;-86
2022/03/06 02:47:40;;;;;;;90.50;38.85;;;;;;;2.27;100.00;97288.78;4992944;28;20053;-87
2022/03/06 02:50:10;;;;;;;75.38;35.80;;;;;;;2.34;100.00;97294.72;4981662;28;20048;-86
2022/03/06 02:52:38;;;;;;;86.05;39.35;;;;;;;2.32;100.00;97292.13;5001866;28;20041;-86
2022/03/06 02:55:05;;;;;;;77.93;35.97;;;;;;;2.34;100.00;97298.22;4987532;28;20414;-84
2022/03/06 02:57:31;;;;;;;73.32;34.95;;;;;;;2.28;100.00;97290.50;5004081;28;20129;-87
2022/03/06 02:59:56;;;;;;;95.40;40.72;;;;;;;2.27;100.00;97294.06;4984224;28;20107;-85
2022/03/06 03:02:22;;;;;;;101.85;41.08;;;;;;;2.19;100.00;97293.44;4989617;28;20021;-86
2022/03/06 03:04:48;;;;;;;97.97;41.65;;;;;;;2.22;100.00;97293.34;4981964;28;20034;-86
2022/03/06 03:07:13;;;;;;;96.60;41.97;;;;;;;2.27;100.00;97286.16;5009413;28;20017;-86
2022/03/06 03:09:39;;;;;;;87.00;39.47;;;;;;;2.29;100.00;97284.31;4992208;28;20561;-86
2022/03/06 03:12:06;;;;;;;83.53;38.40;;;;;;;2.39;100.00;97295.44;4979006;28;20032;-86
2022/03/06 03:14:32;;;;;;;77.32;35.35;;;;;;;2.35;100.00;97294.66;4987514;28;20029;-86
2022/03/06 03:17:04;;;;;;;78.72;35.67;;;;;;;2.31;100.00;97295.66;4995499;28;20031;-86
2022/03/06 03:19:29;;;;;;;82.38;38.35;;;;;;;2.24;100.00;97294.19;5011464;28;20177;-87
2022/03/06 03:21:55;;;;;;;82.53;39.08;;;;;;;2.09;100.00;97292.03;4978693;28;20120;-86
2022/03/06 03:24:22;;;;;;;86.65;37.70;;;;;;;2.10;100.00;97294.63;4986350;28;20478;-88
2022/03/06 03:26:47;;;;;;;79.40;37.58;;;;;;;2.12;100.00;97294.59;4996309;28;20030;-86
2022/03/06 03:29:13;;;;;;;81.72;36.97;;;;;;;2.21;100.00;97299.56;5003860;28;20044;-85
2022/03/06 03:31:39;;;;;;;81.65;35.08;;;;;;;2.04;100.00;97272.84;4992073;28;20025;-85
2022/03/06 03:34:04;;;;;;;75.78;34.00;;;;;;;2.14;100.00;97290.09;4994452;28;20064;-85
2022/03/06 03:36:30;;;;;;;83.47;36.17;;;;;;;2.20;100.00;97292.53;4997915;28;20033;-85
2022/03/06 03:38:56;;;;;;;73.45;34.80;;;;;;;2.21;100.00;97296.91;4996292;28;20404;-84
2022/03/06 03:41:23;;;;;;;66.10;31.20;;;;;;;2.23;100.00;97305.63;4989910;28;20040;-85
2022/03/06 03:43:49;;;;;;;60.45;29.85;;;;;;;2.22;100.00;97305.66;4981339;28;20029;-85
2022/03/06 03:46:15;;;;;;;62.30;29.60;;;;;;;2.33;100.00;97312.34;4996451;28;20143;-85
2022/03/06 03:48:40;;;;;;;59.85;29.23;;;;;;;2.36;100.00;97314.88;4986976;28;20021;-84
2022/03/06 03:51:08;;;;;;;55.70;27.75;;;;;;;2.33;100.00;97300.91;4994551;28;20025;-84
2022/03/06 03:53:37;;;;;;;63.50;29.85;;;;;;;2.26;100.00;97302.88;4980001;28;20037;-87
2022/03/06 03:56:04;;;;;;;57.88;29.05;;;;;;;2.25;100.00;97311.72;4998003;28;20132;-86
2022/03/06 03:58:31;;;;;;;58.42;28.13;;;;;;;2.31;100.00;97297.47;5002074;28;20050;-86
2022/03/06 04:00:57;;;;;;;67.72;32.28;;;;;;;2.35;100.00;97310.50;5020820;28;20037;-86
2022/03/06 04:03:23;;;;;;;58.50;28.90;;;;;;;2.28;100.00;97298.41;5009135;28;20034;-86
2022/03/06 04:05:48;;;;;;;68.55;34.17;;;;;;;2.36;100.00;97296.41;5015102;28;20026;-87
2022/03/06 04:08:14;;;;;;;54.38;28.30;;;;;;;2.24;100.00;97288.91;5004692;28;20047;-84
2022/03/06 04:10:40;;;;;;;49.63;25.17;;;;;;;2.35;100.00;97310.50;4998348;28;20041;-85
2022/03/06 04:13:05;;;;;;;52.88;25.92;;;;;;;2.17;100.00;97301.41;5013542;28;20029;-85
2022/03/06 04:15:31;;;;;;;54.15;26.67;;;;;;;2.25;100.00;97290.59;5001177;28;20045;-86
2022/03/06 04:17:57;;;;;;;51.95;25.63;;;;;;;2.31;100.00;97300.94;5002417;28;20102;-85
2022/03/06 04:20:23;;;;;;;48.60;23.95;;;;;;;2.26;100.00;97294.97;5010147;28;20101;-84
2022/03/06 04:22:49;;;;;;;51.03;24.88;;;;;;;2.20;100.00;97297.81;5020113;28;20037;-84
2022/03/06 04:25:14;;;;;;;51.42;25.15;;;;;;;2.24;100.00;97299.44;5029254;28;20029;-85
2022/03/06 04:27:40;;;;;;;50.83;25.73;;;;;;;2.26;100.00;97294.97;5014212;28;20033;-85
2022/03/06 04:30:06;;;;;;;55.30;27.15;;;;;;;2.28;100.00;97303.69;5020848;28;20516;-85
2022/03/06 04:32:32;;;;;;;63.00;29.73;;;;;;;2.26;100.00;97294.97;5002478;28;20037;-86
2022/03/06 04:34:58;;;;;;;55.40;27.70;;;;;;;2.25;100.00;97287.97;5013678;28;20128;-85
2022/03/06 04:37:24;;;;;;;57.47;28.13;;;;;;;2.27;100.00;97294.06;5002243;28;20049;-84
2022/03/06 04:39:49;;;;;;;61.10;29.58;;;;;;;2.26;100.00;97294.97;4995154;28;20033;-84
2022/03/06 04:42:15;;;;;;;59.25;30.77;;;;;;;2.30;100.00;97301.88;5004365;28;20421;-84
2022/03/06 04:44:41;;;;;;;64.15;29.45;;;;;;;2.24;100.00;97302.09;5013858;28;20087;-84
2022/03/06 04:47:07;;;;;;;54.08;27.65;;;;;;;2.22;100.00;97288.06;5003603;28;20037;-85
2022/03/06 04:49:32;;;;;;;51.95;25.98;;;;;;;2.22;100.00;97295.09;4997563;28;20089;-85
2022/03/06 04:51:58;;;;;;;50.10;25.38;;;;;;;2.18;100.00;97289.09;4997089;28;20030;-86
2022/03/06 04:54:25;;;;;;;51.95;26.88;;;;;;;2.29;100.00;97305.44;4997731;28;20029;-86
2022/03/06 04:56:52;;;;;;;58.58;28.23;;;;;;;2.27;100.00;97295.84;5009267;28;20041;-85
2022/03/06 04:59:18;;;;;;;52.13;26.75;;;;;;;2.31;100.00;97298.31;5002262;28;20088;-85
2022/03/06 05:01:43;;;;;;;53.63;26.77;;;;;;;2.35;100.00;97305.22;4991521;28;20109;-85
2022/03/06 05:04:09;;;;;;;51.72;25.75;;;;;;;2.35;100.00;97299.06;4999329;28;20025;-86
2022/03/06 05:06:35;;;;;;;45.70;23.95;;;;;;;2.28;100.00;97308.97;5001192;28;20021;-86
2022/03/06 05:09:01;;;;;;;53.83;27.45;;;;;;;2.28;100.00;97313.41;4991954;28;20033;-85
2022/03/06 05:11:27;;;;;;;50.80;26.10;;;;;;;2.14;100.00;97300.66;4988136;28;20117;-86
2022/03/06 05:13:52;;;;;;;51.08;25.40;;;;;;;2.19;100.00;97310.13;4982520;28;20064;-85
2022/03/06 05:16:18;;;;;;;47.60;24.25;;;;;;;2.22;100.00;97297.75;4991149;28;20029;-85
2022/03/06 05:18:43;;;;;;;51.80;25.13;;;;;;;2.06;100.00;97303.53;5001247;28;20029;-86
2022/03/06 05:21:09;;;;;;;51.33;25.85;;;;;;;2.02;100.00;97311.59;4984182;28;20029;-86
2022/03/06 05:23:35;;;;;;;50.05;26.63;;;;;;;1.99;100.00;97298.53;4984359;28;20025;-86
2022/03/06 05:26:01;;;;;;;57.20;27.45;;;;;;;2.19;100.00;97314.53;5000835;28;20484;-86
2022/03/06 05:28:27;;;;;;;50.63;26.60;;;;;;;2.31;100.00;97310.66;5002057;28;20055;-85
2022/03/06 05:30:53;;;;;;;51.50;25.55;;;;;;;2.36;100.00;97322.78;5007638;28;20481;-87
2022/03/06 05:33:19;;;;;;;55.05;27.42;;;;;;;2.25;100.00;97306.44;5000833;28;20034;-85
2022/03/06 05:35:46;;;;;;;55.85;29.27;;;;;;;2.31;100.00;97316.78;4993428;28;20064;-85
2022/03/06 05:38:11;;;;;;;47.92;26.27;;;;;;;2.38;100.00;97305.13;4992149;28;20524;-85
2022/03/06 05:40:37;;;;;;;47.47;25.38;;;;;;;2.35;100.00;97299.94;4992672;28;20030;-85
2022/03/06 05:43:03;;;;;;;50.40;25.17;;;;;;;2.25;100.00;97297.66;4993140;28;20028;-85
2022/03/06 05:45:28;;;;;;;57.17;28.33;;;;;;;2.20;100.00;97316.28;5011563;28;20464;-85
2022/03/06 05:47:54;;;;;;;51.88;26.92;;;;;;;2.27;100.00;97309.91;4982025;28;20030;-85
2022/03/06 05:50:20;;;;;;;53.85;27.48;;;;;;;2.40;100.00;97315.63;4997892;28;20064;-84
2022/03/06 05:52:45;;;;;;;54.13;28.60;;;;;;;2.51;100.00;97317.00;4992802;28;20049;-85
2022/03/06 05:55:11;;;;;;;50.45;28.23;;;;;;;2.56;100.00;97322.97;4990241;28;20026;-84
2022/03/06 05:57:37;;;;;;;63.25;32.55;;;;;;;2.62;100.00;97313.97;4991403;28;20046;-85
2022/03/06 06:00:08;;;;;;;60.33;31.65;;;;;;;2.60;100.00;97315.81;5003286;28;20030;-85
2022/03/06 06:02:38;;;;;;;62.17;32.30;;;;;;;2.57;100.00;97311.50;4993712;28;20030;-84
2022/03/06 06:05:05;;;;;;;48.10;24.67;;;;;;;2.51;100.00;97322.28;4999286;28;20030;-86
2022/03/06 06:07:30;;;;;;;81.65;36.35;;;;;;;2.45;100.00;97321.63;4992155;28;20109;-86
2022/03/06 06:09:56;;;;;;;66.20;33.17;;;;;;;2.46;100.00;97329.47;4993229;28;20085;-84
2022/03/06 06:12:22;;;;;;;57.97;29.25;;;;;;;2.53;100.00;97319.56;5001386;28;20034;-84
2022/03/06 06:14:48;;;;;;;52.17;27.67;;;;;;;2.61;100.00;97321.06;4985917;28;20061;-83
2022/03/06 06:17:13;;;;;;;63.30;32.05;;;;;;;2.74;100.00;97334.66;4990306;28;20478;-87
2022/03/06 06:19:39;;;;;;;83.88;41.85;;;;;;;2.63;100.00;97310.44;4999196;28;20061;-89
2022/03/06 06:22:05;;;;;;;101.93;45.83;;;;;;;2.72;100.00;97326.81;4984003;28;20104;-85
2022/03/06 06:24:30;;;;;;;126.35;51.90;;;;;;;2.65;100.00;97313.84;5008673;28;20046;-84
2022/03/06 06:26:56;;;;;;;146.55;60.10;;;;;;;2.66;100.00;97321.75;5004840;28;20068;-86
2022/03/06 06:29:23;;;;;;;140.43;67.68;;;;;;;2.76;100.00;97340.78;4976183;28;20037;-85
2022/03/06 06:31:49;;;;;;;105.75;46.35;;;;;;;2.50;100.00;97315.25;4991117;28;20490;-86
2022/03/06 06:34:15;;;;;;;90.55;41.17;;;;;;;2.68;100.00;97340.16;4987921;28;20022;-85
2022/03/06 06:36:41;;;;;;;74.53;38.65;;;;;;;2.88;100.00;97348.28;4984321;28;20041;-88
2022/03/06 06:39:09;;;;;;;55.75;30.00;;;;;;;2.91;100.00;97340.25;5012476;28;20033;-87
2022/03/06 06:41:38;;;;;;;52.90;29.20;;;;;;;3.02;100.00;97350.41;5006016;28;20029;-85
2022/03/06 06:44:05;;;;;;;41.80;22.23;;;;;;;2.84;100.00;97349.28;4978549;28;20031;-85
2022/03/06 06:46:31;;;;;;;45.90;23.98;;;;;;;2.98;100.00;97354.09;4993755;28;20506;-86
2022/03/06 06:48:56;;;;;;;47.90;25.38;;;;;;;3.08;100.00;97355.47;4979890;28;20029;-85
2022/03/06 06:51:22;;;;;;;39.17;22.05;;;;;;;3.08;100.00;97345.78;4987140;28;20053;-85
2022/03/06 06:53:47;;;;;;;39.30;21.38;;;;;;;3.04;100.00;97335.38;4983819;28;20065;-85
2022/03/06 06:56:13;;;;;;;37.45;20.98;;;;;;;3.04;100.00;97348.59;4986981;28;20037;-84
2022/03/06 06:58:39;;;;;;;68.45;33.40;;;;;;;3.00;100.00;97341.69;4982765;28;20208;-84
2022/03/06 07:01:05;;;;;;;60.88;31.00;;;;;;;3.00;100.00;97349.63;4991503;28;20520;-85
2022/03/06 07:03:31;;;;;;;47.45;25.15;;;;;;;2.93;100.00;97338.41;4981827;28;20112;-86
2022/03/06 07:05:58;;;;;;;44.70;24.60;;;;;;;2.93;100.00;97348.09;4989282;28;20030;-86
2022/03/06 07:08:24;;;;;;;48.58;25.08;;;;;;;2.94;100.00;97342.78;4987639;28;20042;-86
2022/03/06 07:10:49;;;;;;;53.33;27.98;;;;;;;3.13;100.00;97348.28;4987860;28;20347;-86
2022/03/06 07:13:15;;;;;;;51.63;27.77;;;;;;;3.17;100.00;97347.22;4991169;28;20084;-86
2022/03/06 07:15:41;;;;;;;57.30;30.75;;;;;;;3.24;100.00;97352.25;4987302;28;20037;-86
2022/03/06 07:18:07;;;;;;;55.03;30.17;;;;;;;3.02;100.00;97335.44;4987517;28;20481;-86
2022/03/06 07:20:33;;;;;;;43.10;23.45;;;;;;;2.71;100.00;97332.13;5009368;28;20179;-86
2022/03/06 07:22:58;;;;;;;53.00;25.90;;;;;;;2.82;100.00;97347.63;4994042;28;20022;-86
2022/03/06 07:25:24;;;;;;;49.15;26.02;;;;;;;2.70;100.00;97336.56;4987793;28;20112;-87
2022/03/06 07:27:50;;;;;;;49.20;26.23;;;;;;;2.69;100.00;97339.25;4986772;28;20028;-87
2022/03/06 07:30:15;;;;;;;52.42;27.73;;;;;;;2.55;100.00;97323.03;5002833;28;20029;-86
2022/03/06 07:32:46;;;;;;;52.80;28.10;;;;;;;2.60;100.00;97356.28;4980959;28;20113;-85
2022/03/06 07:35:12;;;;;;;52.17;28.50;;;;;;;2.62;100.00;97346.50;4993852;28;20057;-86
2022/03/06 07:37:38;;;;;;;49.00;26.00;;;;;;;2.61;100.00;97349.22;4977216;28;20034;-85
2022/03/06 07:40:05;;;;;;;49.25;26.92;;;;;;;2.63;100.00;97350.03;4974855;28;20044;-85
2022/03/06 07:42:31;;;;;;;51.72;28.23;;;;;;;2.62;100.00;97351.78;5004176;28;20034;-84
2022/03/06 07:44:57;;;;;;;51.00;25.40;;;;;;;2.62;100.00;97333.31;5011589;28;20104;-84
2022/03/06 07:47:22;;;;;;;48.38;27.10;;;;;;;2.68;100.00;97333.09;4999970;28;20092;-84
2022/03/06 07:49:48;;;;;;;62.17;30.65;;;;;;;2.80;100.00;97333.63;4984223;28;20030;-84
2022/03/06 07:52:13;;;;;;;44.30;23.42;;;;;;;2.69;100.00;97342.75;4999739;28;20030;-86
2022/03/06 07:54:39;;;;;;;45.30;24.38;;;;;;;2.69;100.00;97342.75;4987836;28;20069;-85
2022/03/06 07:57:05;;;;;;;55.72;27.08;;;;;;;2.60;100.00;97327.25;5014774;28;20030;-86
2022/03/06 07:59:30;;;;;;;51.25;27.13;;;;;;;2.78;100.00;97349.50;4992275;28;20037;-85
2022/03/06 08:01:56;;;;;;;58.58;29.02;;;;;;;2.59;100.00;97337.84;4998176;28;20086;-84
2022/03/06 08:04:22;;;;;;;56.35;27.73;;;;;;;2.76;100.00;97343.41;4995219;28;20045;-85
2022/03/06 08:06:48;;;;;;;52.35;27.27;;;;;;;2.76;100.00;97353.13;4985066;28;20025;-85
2022/03/06 08:09:14;;;;;;;39.70;21.52;;;;;;;2.80;100.00;97344.19;4998396;28;20030;-84
2022/03/06 08:11:39;;;;;;;46.75;24.63;;;;;;;2.87;100.00;97358.88;5014252;28;20029;-85
2022/03/06 08:14:05;;;;;;;44.50;23.85;;;;;;;2.78;100.00;97352.13;4981889;28;20034;-86
2022/03/06 08:16:30;;;;;;;48.90;26.40;;;;;;;2.85;100.00;97363.34;4998020;28;20569;-85
2022/03/06 08:18:56;;;;;;;58.28;31.75;;;;;;;2.79;100.00;97350.38;4991404;28;20497;-84
2022/03/06 08:21:22;;;;;;;66.47;30.40;;;;;;;2.85;100.00;97360.72;4991967;28;20108;-83
2022/03/06 08:23:49;;;;;;;61.92;25.70;;;;;;;2.59;100.00;97357.19;4988444;28;20049;-84
2022/03/06 08:26:15;;;;;;;38.67;20.40;;;;;;;2.61;100.00;97371.22;5005259;28;20045;-85
2022/03/06 08:28:41;;;;;;;42.83;22.40;;;;;;;2.52;100.00;97347.72;5001456;28;20048;-85
2022/03/06 08:31:06;;;;;;;47.78;23.88;;;;;;;2.58;100.00;97371.31;4993337;28;20033;-84
2022/03/06 08:33:32;;;;;;;50.38;24.65;;;;;;;2.60;100.00;97360.69;5001643;28;20036;-84
2022/03/06 08:35:58;;;;;;;45.00;23.27;;;;;;;2.64;100.00;97365.81;4994604;28;20480;-85
2022/03/06 08:38:23;;;;;;;48.67;21.95;;;;;;;2.62;100.00;97367.63;4991699;28;20124;-85
2022/03/06 08:40:49;;;;;;;50.00;23.85;;;;;;;2.68;100.00;97367.44;5005194;28;20033;-86
2022/03/06 08:43:14;;;;;;;54.53;26.60;;;;;;;2.66;100.00;97363.13;4998240;28;20044;-85
2022/03/06 08:45:40;;;;;;;55.65;27.45;;;;;;;2.71;100.00;97362.03;4998469;28;20022;-86
2022/03/06 08:48:06;;;;;;;53.10;26.63;;;;;;;2.78;100.00;97365.34;4986586;28;20030;-85
2022/03/06 08:50:31;;;;;;;60.20;29.98;;;;;;;2.89;100.00;97365.81;4991233;28;20456;-86
2022/03/06 08:52:57;;;;;;;60.63;29.02;;;;;;;3.05;100.00;97363.50;4987991;28;20025;-85
2022/03/06 08:55:23;;;;;;;73.13;33.97;;;;;;;3.00;100.00;97371.63;4993065;28;20029;-85
2022/03/06 08:57:48;;;;;;;48.85;25.33;;;;;;;2.78;100.00;97359.19;5000875;28;20037;-85
2022/03/06 09:00:14;;;;;;;58.70;28.58;;;;;;;2.92;100.00;97375.44;4993555;28;20175;-85
2022/03/06 09:02:40;;;;;;;50.40;26.90;;;;;;;2.92;100.00;97378.09;4990089;28;20028;-86
2022/03/06 09:05:06;;;;;;;51.50;26.73;;;;;;;2.94;100.00;97394.72;4988529;28;20093;-85
2022/03/06 09:07:31;;;;;;;53.35;27.80;;;;;;;2.97;100.00;97382.28;4993143;28;20068;-86
2022/03/06 09:09:57;;;;;;;51.15;25.63;;;;;;;3.00;100.00;97378.66;5017041;28;20045;-84
2022/03/06 09:12:26;;;;;;;49.38;25.58;;;;;;;2.95;100.00;97370.06;4984355;28;20033;-85
2022/03/06 09:14:55;;;;;;;40.45;23.10;;;;;;;3.06;100.00;97379.31;4986631;28;20047;-85
2022/03/06 09:17:21;;;;;;;41.38;22.33;;;;;;;2.92;100.00;97376.31;4993269;28;20038;-85
2022/03/06 09:19:47;;;;;;;51.63;25.77;;;;;;;2.96;100.00;97384.97;5001316;28;20022;-85
2022/03/06 09:22:12;;;;;;;50.97;25.45;;;;;;;2.84;100.00;97377.47;5018210;28;20117;-85
2022/03/06 09:24:38;;;;;;;48.35;24.40;;;;;;;2.78;100.00;97367.97;4998851;28;20033;-87
2022/03/06 09:27:04;;;;;;;60.03;27.88;;;;;;;2.81;100.00;97374.94;4981229;28;20050;-85
2022/03/06 09:29:30;;;;;;;57.45;28.02;;;;;;;2.74;100.00;97383.06;4987847;28;20088;-85
2022/03/06 09:31:55;;;;;;;57.30;29.27;;;;;;;2.85;100.00;97373.91;4993300;28;20456;-84
2022/03/06 09:34:21;;;;;;;48.17;26.05;;;;;;;2.90;100.00;97377.25;4992433;28;20029;-85
2022/03/06 09:36:47;;;;;;;47.63;23.85;;;;;;;2.95;100.00;97378.84;4989911;28;20083;-85
2022/03/06 09:39:16;;;;;;;45.20;23.65;;;;;;;2.84;100.00;97382.75;4996239;28;20025;-85
2022/03/06 09:41:42;;;;;;;45.60;24.02;;;;;;;2.89;100.00;97362.34;4993307;28;20033;-86
2022/03/06 09:44:12;;;;;;;47.85;24.98;;;;;;;3.19;100.00;97385.91;5010969;28;20022;-85
2022/03/06 09:46:39;;;;;;;57.50;28.40;;;;;;;3.20;100.00;97381.47;4996837;28;20036;-85
2022/03/06 09:49:05;;;;;;;43.88;24.00;;;;;;;3.32;100.00;97372.25;4998233;28;20021;-85
2022/03/06 09:51:40;;;;;;;48.90;25.52;;;;;;;3.54;100.00;97384.63;5006853;28;20042;-85
2022/03/06 09:54:12;;;;;;;50.33;27.02;;;;;;;3.72;100.00;97381.28;4998977;28;20028;-85
2022/03/06 09:56:38;;;;;;;;;;;;;;;3.94;100.00;97372.56;4984629;28;20033;-85
2022/03/06 09:59:04;;;;;;;39.53;20.75;;;;;;;3.92;100.00;97361.16;4988635;28;19921;-85
2022/03/06 10:01:29;;;;;;;37.53;21.20;;;;;;;3.84;100.00;97364.94;4989239;28;20026;-85
2022/03/06 10:03:55;;;;;;;47.03;27.02;;;;;;;3.76;100.00;97360.88;4992805;28;20034;-85
2022/03/06 10:06:21;;;;;;;53.80;28.65;;;;;;;3.71;100.00;97357.56;4996218;28;20063;-87
2022/03/06 10:08:47;;;;;;;64.63;34.60;;;;;;;3.67;100.00;97358.56;5014995;28;20120;-84
2022/03/06 10:11:14;;;;;;;75.47;37.13;;;;;;;3.57;100.00;97366.00;4988606;28;20030;-85
2022/03/06 10:13:44;;;;;;;62.47;32.55;;;;;;;3.36;100.00;97366.78;4987625;28;20036;-86
2022/03/06 10:16:12;;;;;;;62.80;30.17;;;;;;;3.26;100.00;97376.81;4981416;28;20118;-85
2022/03/06 10:18:45;;;;;;;58.88;26.80;;;;;;;2.89;100.00;97351.78;5003787;28;20060;-87
2022/03/06 10:21:25;;;;;;;54.92;25.70;;;;;;;3.06;100.00;97384.59;4987010;28;20029;-85
2022/03/06 10:23:55;;;;;;;56.90;25.48;;;;;;;3.03;100.00;97379.44;5007429;28;20072;-86
2022/03/06 10:26:25;;;;;;;48.35;25.83;;;;;;;2.66;100.00;97369.28;5000314;28;20132;-86
2022/03/06 10:29:01;;;;;;;57.75;27.98;;;;;;;2.63;100.00;97373.78;5023323;28;20468;-86
2022/03/06 10:31:37;;;;;;;58.42;28.38;;;;;;;2.49;100.00;97361.03;4997247;28;20034;-86
2022/03/06 10:34:10;;;;;;;53.15;28.77;;;;;;;2.59;100.00;97369.50;5003493;28;20104;-85
2022/03/06 10:36:42;;;;;;;53.97;28.80;;;;;;;2.52;100.00;97370.66;5010826;28;20585;-86
2022/03/06 10:39:20;;;;;;;50.75;27.52;;;;;;;2.55;100.00;97347.63;4995164;28;20029;-87
2022/03/06 10:41:47;;;;;;;49.95;25.08;;;;;;;2.42;100.00;97364.81;4987831;28;20117;-87
2022/03/06 10:44:14;;;;;;;41.85;21.95;;;;;;;2.40;100.00;97378.97;4987597;28;20448;-85
2022/03/06 10:46:41;;;;;;;52.45;26.50;;;;;;;2.29;100.00;97367.88;4988029;28;20026;-87
2022/03/06 10:49:14;;;;;;;57.55;27.55;;;;;;;2.15;100.00;97358.63;4983716;28;20037;-85
2022/03/06 10:51:48;;;;;;;48.75;23.55;;;;;;;2.08;100.00;97369.44;4999339;28;20021;-86
2022/03/06 10:54:15;;;;;;;44.40;22.23;;;;;;;1.99;100.00;97346.00;5012100;28;20033;-85
2022/03/06 10:56:47;;;;;;;45.33;23.67;;;;;;;1.95;100.00;97341.72;5010319;28;20071;-85
2022/03/06 10:59:13;;;;;;;41.05;21.02;;;;;;;1.89;100.00;97339.25;4995810;28;20041;-86
2022/03/06 11:01:38;;;;;;;45.65;23.00;;;;;;;1.95;100.00;97336.44;4981230;28;20045;-85
2022/03/06 11:04:06;;;;;;;51.58;23.88;;;;;;;2.03;100.00;97358.19;4995461;28;20034;-84
2022/03/06 11:06:42;;;;;;;52.67;23.67;;;;;;;2.02;100.00;97359.94;4987521;28;20047;-85
2022/03/06 11:09:12;;;;;;;51.15;23.33;;;;;;;2.10;100.00;97359.69;4995610;28;20026;-84
2022/03/06 11:11:40;;;;;;;48.35;21.30;;;;;;;2.03;100.00;97351.09;4998104;28;20025;-84
2022/03/06 11:14:06;;;;;;;40.45;20.50;;;;;;;1.98;100.00;97358.31;4992810;28;20029;-84